Terminal Aerodrome Forecast
Issued by NWS

Home | Current Version | Previous Version | Text Only | Print | Product List | Glossary On
Versions: 1 2 3 4 5 6 7 8 9 10 11 12 13 14 15 16 17 18
000
FTUS43 KGRR 231100
TAFBTL
TAF
KBTL 231140Z 2312/2412 34009KT P6SM SCT035
     FM231600 34008KT P6SM BKN250
     FM240100 09003KT P6SM OVC140=

USA.gov is the U.S. government's official web portal to all federal, state and local government web resources and services.